Taunton 2W

41° 53' 56"N, 71° 08' 19"W, Elevation 50 ft.
Eastern Time

Hourly observations for the last 72 hours

Date Time Temperature (°F) Humi-
dity

(%)
Wind
(mph)
Pressure Rain (in) Sun
(W/m2)
UV ET
(in)
Air Dew 6 Hour 1 Hr 3 Hr 6 Hr Day
Alt
(in)
Sea
Level

(mb)
Max Min
29 14:00 53.2 49.7 53.3 50.9 88 ENE 4 G 11 30.00 1015.9 0.04 0.04 276 1.8 0.016
29 13:00 52.9 50.3 91 N 6 G 13 29.99 1015.6 0.04 283 2.6 0.012
29 12:00 51.5 49.3 92 NE 6 G 12 29.98 1015.2 0.04 120 0.9 0.010
29 11:00 51.8 49.8 93 ENE 3 G 6 29.99 1015.5 0.01 0.04 0.04 193 1.4 0.007
29 10:00 51.1 49.1 93 ENE 5 G 10 29.97 1014.9 0.03 0.03 160 1.0 0.005
29 09:00 51.9 49.4 91 ENE 4 G 10 29.97 1015.0 0.00 47 0.0 0.003
29 08:00 51.8 49.3 51.8 44.2 91 ENE 2 G 8 29.99 1015.7 0.00 74 0.0 0.001
29 07:00 50.8 48.9 93 E 3 G 10 29.98 1015.2 0.00 58 0.0 0.000
29 06:00 49.5 48.4 96 ENE 2 G 5 29.98 1015.4 0.00 40 0.0 0.000
29 05:00 47.7 46.9 97 ENE 1 G 4 29.97 1014.8 0.00 0 0.0 0.000
29 04:00 45.0 43.9 96 Calm 29.95 1014.3 0.00 0 0.0 0.000
29 03:00 44.5 43.2 95 Calm 29.97 1014.8 0.00 0 0.0 0.000
29 02:00 46.0 44.4 58.7 46.0 94 Calm 29.96 1014.7 0.00 0 0.0 0.000
29 01:00 48.6 47.0 94 Calm 29.97 1014.9 0.00 0 0.0 0.000
29 00:00 50.6 48.7 93 ESE 1 G 4 29.98 1015.1 0.00 0 0.0 0.143
28 23:00 51.7 48.9 90 ESE 2 G 3 29.99 1015.6 0.00 0 0.0 0.143
28 22:00 53.7 49.6 86 SE 1 G 2 29.99 1015.6 0.00 0 0.0 0.142
28 21:00 56.0 49.9 80 SSW 3 G 5 30.00 1015.8 0.00 0 0.0 0.141
28 20:00 58.7 51.2 67.9 58.7 76 SSE 3 G 9 29.98 1015.3 0.00 5 0.0 0.140
28 19:00 61.5 51.2 69 S 4 G 10 29.97 1014.9 0.00 62 0.0 0.136
28 18:00 63.4 49.7 61 SSW 6 G 14 29.96 1014.6 0.00 197 0.7 0.129
28 17:00 64.8 52.3 64 SSE 8 G 14 29.97 1014.8 0.00 279 1.6 0.120
28 16:00 66.4 52.1 60 SSW 8 G 15 29.96 1014.6 0.00 346 2.3 0.107
28 15:00 66.3 53.8 64 SSE 5 G 14 29.97 1014.9 0.00 499 3.2 0.095
28 14:00 67.9 55.3 69.7 57.0 64 SSW 12 G 15 29.97 1014.9 0.00 531 4.1 0.078
28 13:00 69.1 57.3 66 SSW 5 G 12 29.95 1014.3 0.00 666 5.7 0.058
28 12:00 68.4 56.6 66 SW 6 G 11 29.94 1014.0 0.00 933 7.5 0.037
28 11:00 66.2 57.3 73 WSW 3 G 8 29.94 1014.1 0.00 643 5.4 0.021
28 10:00 64.2 56.8 77 SSW 5 G 12 29.95 1014.2 0.00 638 4.2 0.008
28 09:00 60.3 55.8 85 SSE 1 G 5 29.96 1014.6 0.00 367 2.5 0.003
28 08:00 57.0 54.1 57.1 49.6 90 SE 3 G 4 29.96 1014.7 0.00 160 0.7 0.001
28 07:00 55.1 53.7 95 S 2 G 5 29.94 1014.0 0.00 79 0.0 0.000
28 06:00 52.8 52.0 97 Calm 29.91 1012.9 0.00 28 0.0 0.000
28 05:00 51.8 51.0 97 S 1 G 3 29.91 1012.8 0.00 0 0.0 0.000
28 04:00 49.7 48.6 96 S 0 G 2 29.91 1012.9 0.00 0 0.0 0.000
28 03:00 51.9 50.5 95 S 1 G 3 29.90 1012.7 0.00 0 0.0 0.000
28 02:00 52.8 51.4 59.7 51.0 95 SSE 3 G 8 29.91 1012.9 0.00 0 0.0 0.000
28 01:00 52.6 51.2 95 SE 1 G 3 29.92 1013.4 0.00 0 0.0 0.000
28 00:00 51.2 49.8 95 SE 1 G 2 29.93 1013.5 0.00 0 0.0 0.135
27 23:00 52.3 50.3 93 SE 1 G 2 29.92 1013.1 0.00 0 0.0 0.135
27 22:00 54.9 51.4 88 SE 3 G 4 29.91 1013.0 0.00 0 0.0 0.134
27 21:00 57.3 51.9 82 ESE 2 G 6 29.90 1012.7 0.00 0 0.0 0.133
27 20:00 59.7 53.5 71.2 59.7 80 SE 3 G 6 29.89 1012.3 0.00 9 0.0 0.132
27 19:00 62.6 54.2 74 S 4 G 10 29.87 1011.6 0.00 54 0.0 0.127
27 18:00 65.6 56.0 71 SE 6 G 10 29.85 1011.0 0.00 211 0.6 0.119
27 17:00 68.7 52.4 56 S 4 G 8 29.85 1010.8 0.00 292 1.4 0.109
27 16:00 70.9 50.3 48 WNW 3 G 9 29.84 1010.7 0.00 700 3.5 0.093
27 15:00 69.4 52.1 54 E 3 G 12 29.84 1010.6 0.00 1034 5.3 0.073
27 14:00 67.3 53.4 68.1 55.3 61 E 4 G 12 29.84 1010.6 0.00 1132 7.4 0.051
27 13:00 65.2 54.4 68 ESE 3 G 7 29.84 1010.7 0.00 1190 8.3 0.036
27 12:00 63.2 54.4 73 NNE 2 G 7 29.84 1010.5 0.00 399 7.4 0.022
27 11:00 60.1 53.2 78 NNW 2 G 5 29.84 1010.6 0.00 552 4.3 0.015
27 10:00 58.8 54.3 85 NNW 1 G 3 29.85 1010.8 0.00 1190 3.1 0.009
27 09:00 57.3 53.5 87 NNW 5 G 8 29.83 1010.3 0.00 165 0.8 0.004
27 08:00 55.3 53.6 55.3 52.7 94 NW 3 G 8 29.83 1010.0 0.00 174 0.7 0.002
27 07:00 54.6 53.2 95 NW 4 G 7 29.81 1009.5 0.00 77 0.0 0.000
27 06:00 53.0 52.5 98 NW 2 G 4 29.80 1009.0 0.00 21 0.0 0.000
27 05:00 52.8 52.0 97 N 0 G 4 29.79 1008.7 0.00 0 0.0 0.000
27 04:00 52.9 52.1 97 N 1 G 4 29.77 1008.1 0.00 0 0.0 0.000
27 03:00 52.9 52.1 97 NNE 1 G 2 29.75 1007.7 0.00 0 0.0 0.000
27 02:00 53.0 52.2 56.8 52.9 97 NNE 2 G 3 29.75 1007.6 0.00 0 0.0 0.000
27 01:00 53.1 52.3 97 Calm 29.74 1007.2 0.00 0 0.0 0.000
27 00:00 53.2 52.1 96 NNE 0 G 2 29.73 1006.8 0.68 0 0.0 0.040
26 23:00 54.4 53.3 96 ENE 6 G 12 29.71 1006.1 0.68 0 0.0 0.040
26 22:00 56.2 55.4 97 W 0 G 2 29.69 1005.5 0.68 0 0.0 0.040
26 21:00 55.9 55.1 97 Calm 29.66 1004.5 0.68 0 0.0 0.040
26 20:00 56.8 55.7 57.2 55.1 96 Calm 29.65 1004.0 0.01 0.08 0.68 0 0.0 0.040
26 19:00 57.1 56.0 96 W 2 G 5 29.62 1002.9 0.68 23 0.0 0.039
26 18:00 57.0 55.6 95 W 1 G 3 29.60 1002.6 0.01 0.68 88 0.0 0.036
26 17:00 56.4 55.0 95 W 3 G 5 29.59 1002.0 0.03 0.07 0.67 130 0.5 0.034
26 16:00 56.7 54.7 93 NW 4 G 7 29.58 1001.7 0.01 0.64 144 0.7 0.030
26 15:00 56.8 55.1 94 W 4 G 10 29.56 1001.2 0.03 0.63 371 2.3 0.025

Data generated by WxSolution Version 1.9.0.7, Build 2017.01.18.